Time;durP1;ratioP1;P1;durP2;ratioP2;P2;SDS_P1;SDS_P2;PMS_P1;PMS_P2;Temp;Humidity;BMP_temperature;BMP_pressure;BME280_temperature;BME280_humidity;BME280_pressure;Samples;Min_cycle;Max_cycle;Signal;HPM_P1;HPM_P2
2021/12/29 00:01:24;;;;;;;;;0.00;0.00;;;;;16.72;62.08;100146.47;5070373;28;9754;-61
2021/12/29 00:03:50;;;;;;;;;1.33;0.33;;;;;16.73;62.16;100152.63;5071157;28;9089;-61
2021/12/29 00:06:16;;;;;;;;;4.00;2.00;;;;;16.71;62.06;100162.34;5070481;28;9133;-61
2021/12/29 00:08:41;;;;;;;;;2.33;2.33;;;;;16.73;62.02;100160.53;5070521;28;11424;-61
2021/12/29 00:11:07;;;;;;;;;2.33;1.00;;;;;16.73;62.16;100171.06;5071013;28;8797;-61
2021/12/29 00:13:33;;;;;;;;;1.00;1.00;;;;;16.72;62.25;100166.72;5070003;28;8864;-61
2021/12/29 00:16:00;;;;;;;;;3.00;2.33;;;;;16.71;62.16;100173.75;5070696;28;8754;-61
2021/12/29 00:18:27;;;;;;;;;2.00;1.33;;;;;16.68;62.13;100176.44;5070765;28;9535;-61
2021/12/29 00:20:53;;;;;;;;;1.00;1.00;;;;;16.64;62.23;100173.88;5069797;28;9046;-61
2021/12/29 00:23:18;;;;;;;;;1.33;1.33;;;;;16.71;62.03;100201.88;5071020;28;9011;-61
2021/12/29 00:25:46;;;;;;;;;1.00;1.00;;;;;16.70;62.18;100206.28;5070455;28;8784;-61
2021/12/29 00:28:12;;;;;;;;;1.00;1.00;;;;;16.72;62.26;100207.09;5072918;28;8774;-61
2021/12/29 00:30:38;;;;;;;;;2.00;1.00;;;;;16.69;62.15;100207.16;5075062;28;8956;-60
2021/12/29 00:33:03;;;;;;;;;3.00;1.00;;;;;16.71;62.00;100218.56;5074496;28;9505;-61
2021/12/29 00:35:29;;;;;;;;;0.67;0.67;;;;;16.73;62.02;100215.88;5073851;28;8805;-60
2021/12/29 00:37:55;;;;;;;;;1.33;1.00;;;;;16.75;62.14;100227.31;5074592;28;8778;-60
2021/12/29 00:40:20;;;;;;;;;1.00;1.00;;;;;16.72;61.95;100222.06;5074726;28;9178;-61
2021/12/29 00:42:45;;;;;;;;;1.33;1.33;;;;;16.67;62.20;100226.53;5073597;28;8766;-61
2021/12/29 00:45:11;;;;;;;;;1.67;1.67;;;;;16.72;61.92;100225.56;5074364;28;8785;-61
2021/12/29 00:47:38;;;;;;;;;1.00;1.00;;;;;16.71;61.84;100237.03;5074572;28;8785;-61
2021/12/29 00:50:12;;;;;;;;;0.67;0.67;;;;;16.71;62.24;100236.16;5073655;28;8829;-60
2021/12/29 00:52:38;;;;;;;;;0.00;0.00;;;;;16.69;62.26;100233.50;5074274;28;9109;-61
2021/12/29 00:55:03;;;;;;;;;0.67;0.67;;;;;16.69;61.98;100236.16;5074081;28;9283;-61
2021/12/29 00:57:29;;;;;;;;;2.00;2.00;;;;;16.73;61.99;100245.75;5073730;28;8833;-61
2021/12/29 00:59:54;;;;;;;;;0.00;0.00;;;;;16.72;61.88;100251.06;5073978;28;8809;-61
2021/12/29 01:02:19;;;;;;;;;1.00;1.00;;;;;16.69;62.03;100269.53;5074071;28;8770;-61
2021/12/29 01:04:44;;;;;;;;;2.00;1.00;;;;;16.68;62.20;100275.72;5073501;28;8812;-61
2021/12/29 01:07:10;;;;;;;;;2.00;1.00;;;;;16.69;62.01;100280.97;5074337;28;8774;-60
2021/12/29 01:09:35;;;;;;;;;1.00;1.00;;;;;16.69;62.17;100288.88;5073336;28;9576;-58
2021/12/29 01:12:00;;;;;;;;;0.00;0.00;;;;;16.67;62.06;100295.94;5073599;28;9278;-59
2021/12/29 01:14:30;;;;;;;;;0.00;0.00;;;;;16.70;62.19;100305.56;5074043;28;8797;-59
2021/12/29 01:16:56;;;;;;;;;0.00;0.00;;;;;16.71;61.96;100304.69;5072771;28;9525;-59
2021/12/29 01:19:29;;;;;;;;;0.00;0.00;;;;;16.78;61.88;100308.97;5073818;28;9008;-59
2021/12/29 01:21:58;;;;;;;;;1.00;1.00;;;;;16.74;61.86;100304.63;5073693;28;9021;-59
2021/12/29 01:24:26;;;;;;;;;2.00;0.00;;;;;16.73;62.11;100309.03;5072960;28;9749;-60
2021/12/29 01:26:52;;;;;;;;;1.33;0.67;;;;;16.72;61.77;100315.19;5073472;28;8951;-60
2021/12/29 01:29:18;;;;;;;;;1.33;1.00;;;;;16.71;61.86;100325.75;5073310;28;9062;-59
2021/12/29 01:31:44;;;;;;;;;1.00;1.00;;;;;16.73;62.01;100331.88;5073139;28;8867;-59
2021/12/29 01:34:11;;;;;;;;;5.00;1.00;;;;;16.71;62.13;100325.75;5073771;28;8927;-60
2021/12/29 01:36:38;;;;;;;;;1.00;0.00;;;;;16.72;62.02;100328.34;5073358;28;9132;-59
2021/12/29 01:39:07;;;;;;;;;0.00;0.00;;;;;16.72;62.03;100338.06;5072117;28;9034;-60
2021/12/29 01:41:33;;;;;;;;;0.00;0.00;;;;;16.67;62.02;100337.22;5073656;28;9065;-59
2021/12/29 01:43:59;;;;;;;;;0.00;0.00;;;;;16.66;61.94;100335.47;5073202;28;9091;-60
2021/12/29 01:46:24;;;;;;;;;0.67;0.67;;;;;16.68;62.31;100345.13;5072851;28;8789;-60
2021/12/29 01:48:50;;;;;;;;;1.33;0.33;;;;;16.68;61.91;100345.13;5072836;28;9124;-59
2021/12/29 01:51:19;;;;;;;;;0.67;0.00;;;;;16.68;61.97;100347.78;5073345;28;8766;-59
2021/12/29 01:54:01;;;;;;;;;2.00;1.00;;;;;16.73;61.92;100342.41;5072429;28;8778;-60
2021/12/29 01:56:28;;;;;;;;;1.00;1.00;;;;;16.71;62.10;100363.53;5073160;28;8993;-59
2021/12/29 01:58:53;;;;;;;;;0.00;0.00;;;;;16.69;61.95;100359.16;5071950;28;9024;-60
2021/12/29 02:01:19;;;;;;;;;0.00;0.00;;;;;16.69;61.94;100365.31;5073003;28;8874;-59
2021/12/29 02:03:45;;;;;;;;;0.67;0.67;;;;;16.70;61.88;100371.47;5072662;28;8774;-59
2021/12/29 02:06:10;;;;;;;;;4.00;1.33;;;;;16.67;61.78;100372.38;5072249;28;8782;-59
2021/12/29 02:08:35;;;;;;;;;1.33;1.33;;;;;16.64;62.07;100382.97;5072851;28;11390;-59
2021/12/29 02:11:01;;;;;;;;;0.00;0.00;;;;;16.67;61.72;100364.47;5072496;28;9661;-59
2021/12/29 02:13:28;;;;;;;;;0.33;0.00;;;;;16.69;61.84;100367.94;5072384;28;8790;-59
2021/12/29 02:15:53;;;;;;;;;1.00;1.00;;;;;16.67;62.19;100377.66;5072450;28;8874;-60
2021/12/29 02:18:20;;;;;;;;;0.00;0.00;;;;;16.67;61.86;100375.00;5072878;28;9684;-60
2021/12/29 02:20:53;;;;;;;;;2.00;1.00;;;;;16.70;61.88;100384.63;5071730;28;8786;-60
2021/12/29 02:23:31;;;;;;;;;2.00;1.00;;;;;16.66;62.02;100381.16;5072384;28;9153;-60
2021/12/29 02:25:58;;;;;;;;;2.67;0.67;;;;;16.68;61.99;100389.94;5072194;28;9858;-60
2021/12/29 02:28:29;;;;;;;;;1.00;1.00;;;;;16.70;61.93;100385.50;5071635;28;9179;-59
2021/12/29 02:30:55;;;;;;;;;0.00;0.00;;;;;16.65;62.16;100368.00;5071953;28;9971;-59
2021/12/29 02:33:23;;;;;;;;;0.33;0.33;;;;;16.67;61.91;100382.03;5072481;28;9113;-59
2021/12/29 02:35:49;;;;;;;;;0.00;0.00;;;;;16.64;61.86;100387.34;5071176;28;9140;-59
2021/12/29 02:38:31;;;;;;;;;0.33;0.33;;;;;16.65;61.85;100387.31;5072573;28;9117;-59
2021/12/29 02:41:00;;;;;;;;;1.00;1.00;;;;;16.67;61.90;100385.56;5071363;28;8785;-59
2021/12/29 02:43:25;;;;;;;;;0.33;0.33;;;;;16.68;61.80;100396.97;5072219;28;9200;-59
2021/12/29 02:45:59;;;;;;;;;1.00;1.00;;;;;16.69;61.76;100388.16;5071913;28;9108;-59
2021/12/29 02:48:26;;;;;;;;;0.00;0.00;;;;;16.67;61.99;100396.09;5071603;28;8782;-59
2021/12/29 02:50:55;;;;;;;;;0.00;0.00;;;;;16.66;61.97;100404.88;5071415;28;9027;-59
2021/12/29 02:53:22;;;;;;;;;1.00;1.00;;;;;16.67;61.74;100418.94;5071986;28;9026;-59
2021/12/29 02:55:47;;;;;;;;;1.00;0.00;;;;;16.69;61.65;100430.31;5070776;28;9116;-59
2021/12/29 02:58:12;;;;;;;;;0.00;0.00;;;;;16.67;62.03;100430.38;5072000;28;9737;-59
2021/12/29 03:00:40;;;;;;;;;2.00;1.00;;;;;16.67;61.89;100438.28;5071995;28;8781;-59
2021/12/29 03:03:21;;;;;;;;;1.00;1.00;;;;;16.70;61.81;100432.97;5071340;28;8781;-59
2021/12/29 03:06:05;;;;;;;;;0.00;0.00;;;;;16.70;61.59;100445.25;5071698;28;8999;-59
2021/12/29 03:08:30;;;;;;;;;0.00;0.00;;;;;16.68;61.81;100441.78;5071522;28;9751;-59
2021/12/29 03:10:56;;;;;;;;;0.67;0.67;;;;;16.66;61.75;100449.69;5070995;28;8941;-59
2021/12/29 03:13:24;;;;;;;;;1.00;1.00;;;;;16.68;61.79;100450.56;5071563;28;8813;-59
2021/12/29 03:15:50;;;;;;;;;1.00;1.00;;;;;16.68;61.80;100454.97;5071494;28;8773;-59
2021/12/29 03:18:16;;;;;;;;;1.00;1.00;;;;;16.66;61.67;100456.72;5070938;28;9234;-60
2021/12/29 03:20:42;;;;;;;;;1.00;1.00;;;;;16.68;61.84;100461.13;5071176;28;9376;-60
2021/12/29 03:23:07;;;;;;;;;0.00;0.00;;;;;16.67;61.67;100472.53;5070540;28;8844;-60
2021/12/29 03:25:33;;;;;;;;;0.00;0.00;;;;;16.68;61.84;100466.38;5071506;28;8818;-60
2021/12/29 03:28:00;;;;;;;;;1.00;1.00;;;;;16.70;61.83;100469.88;5071296;28;8797;-60
2021/12/29 03:30:30;;;;;;;;;0.00;0.00;;;;;16.69;61.53;100481.28;5070793;28;8880;-60
2021/12/29 03:33:05;;;;;;;;;0.00;0.00;;;;;16.69;61.44;100483.94;5071172;28;9000;-60
2021/12/29 03:35:32;;;;;;;;;0.00;0.00;;;;;16.67;61.61;100488.34;5071348;28;9117;-60
2021/12/29 03:37:59;;;;;;;;;0.00;0.00;;;;;16.66;61.95;100491.88;5070519;28;9017;-60
2021/12/29 03:40:24;;;;;;;;;0.00;0.00;;;;;16.67;61.82;100491.00;5071255;28;8934;-60
2021/12/29 03:42:50;;;;;;;;;1.00;1.00;;;;;16.67;61.67;100500.66;5071141;28;9102;-60
2021/12/29 03:45:15;;;;;;;;;0.00;0.00;;;;;16.66;61.69;100502.41;5070780;28;8786;-60
2021/12/29 03:47:40;;;;;;;;;1.00;0.00;;;;;16.69;61.62;100517.31;5070951;28;9548;-60
2021/12/29 03:50:07;;;;;;;;;1.00;1.00;;;;;16.67;61.89;100517.34;5071313;28;8816;-60
2021/12/29 03:52:32;;;;;;;;;0.00;0.00;;;;;16.67;61.75;100511.19;5070412;28;9576;-60
2021/12/29 03:54:57;;;;;;;;;1.00;1.00;;;;;16.63;61.75;100512.09;5071242;28;9240;-60
2021/12/29 03:57:22;;;;;;;;;1.00;1.00;;;;;16.65;61.96;100521.75;5070956;28;8970;-61
2021/12/29 03:59:48;;;;;;;;;0.00;0.00;;;;;16.65;61.80;100519.09;5070312;28;8794;-61
2021/12/29 04:02:13;;;;;;;;;1.00;1.00;;;;;16.65;61.41;100519.09;5070188;28;8822;-60
2021/12/29 04:04:38;;;;;;;;;1.00;1.00;;;;;16.66;61.67;100517.34;5071162;28;8770;-60
2021/12/29 04:07:04;;;;;;;;;0.00;0.00;;;;;16.63;61.69;100518.25;5070489;28;9623;-60
2021/12/29 04:09:29;;;;;;;;;1.00;1.00;;;;;16.62;61.56;100521.78;5071228;28;8806;-60
2021/12/29 04:11:54;;;;;;;;;1.00;0.00;;;;;16.64;61.67;100517.38;5070980;28;8770;-60
2021/12/29 04:14:25;;;;;;;;;0.00;0.00;;;;;16.66;61.55;100512.97;5070366;28;8773;-60
2021/12/29 04:16:50;;;;;;;;;1.00;0.00;;;;;16.65;61.50;100510.31;5071072;28;8770;-60
2021/12/29 04:19:29;;;;;;;;;0.00;0.00;;;;;16.63;61.84;100514.75;5070557;28;8848;-60
2021/12/29 04:21:56;;;;;;;;;1.00;1.00;;;;;16.66;61.53;100518.22;5070792;28;8790;-60
2021/12/29 04:24:21;;;;;;;;;0.00;0.00;;;;;16.66;61.84;100520.88;5070913;28;8993;-60
2021/12/29 04:26:47;;;;;;;;;0.33;0.33;;;;;16.66;61.46;100527.91;5069963;28;9018;-60
2021/12/29 04:29:13;;;;;;;;;0.67;0.00;;;;;16.64;61.80;100537.59;5070848;28;8825;-60
2021/12/29 04:31:39;;;;;;;;;1.00;1.00;;;;;16.63;61.80;100530.56;5070705;28;8774;-60
2021/12/29 04:34:04;;;;;;;;;0.00;0.00;;;;;16.67;61.34;100537.56;5069931;28;9188;-60
2021/12/29 04:36:30;;;;;;;;;0.00;0.00;;;;;16.69;61.55;100544.56;5070763;28;8824;-60
2021/12/29 04:38:58;;;;;;;;;0.00;0.00;;;;;16.67;61.59;100559.53;5070639;28;8789;-60
2021/12/29 04:41:23;;;;;;;;;1.00;1.00;;;;;16.66;61.83;100562.16;5070139;28;8786;-60
2021/12/29 04:43:49;;;;;;;;;0.00;0.00;;;;;16.67;61.50;100563.91;5070201;28;9176;-60
2021/12/29 04:46:17;;;;;;;;;0.67;0.67;;;;;16.66;61.48;100567.44;5070915;28;8785;-60
2021/12/29 04:48:50;;;;;;;;;0.00;0.00;;;;;16.65;61.69;100571.81;5069547;28;8832;-60
2021/12/29 04:51:23;;;;;;;;;0.00;0.00;;;;;16.63;61.77;100581.53;5070597;28;9003;-60
2021/12/29 04:53:49;;;;;;;;;0.00;0.00;;;;;16.66;61.49;100584.13;5070598;28;9006;-60
2021/12/29 04:56:15;;;;;;;;;0.00;0.00;;;;;16.65;61.77;100592.03;5070048;28;8968;-60
2021/12/29 04:58:41;;;;;;;;;0.00;0.00;;;;;16.67;61.48;100588.53;5070078;28;8830;-61
2021/12/29 05:01:06;;;;;;;;;0.00;0.00;;;;;16.64;61.56;100585.91;5070363;28;9007;-61
2021/12/29 05:03:32;;;;;;;;;0.00;0.00;;;;;16.62;61.52;100579.75;5069993;28;9012;-60
2021/12/29 05:08:32;;;;;;;;;0.00;0.00;;;;;16.65;61.85;100587.63;5070166;28;8794;-61
2021/12/29 05:11:06;;;;;;;;;0.00;0.00;;;;;16.65;61.61;100586.75;5069897;28;8941;-60
2021/12/29 05:13:40;;;;;;;;;0.00;0.00;;;;;16.63;61.45;100592.06;5071412;28;11461;-61
2021/12/29 05:16:06;;;;;;;;;0.00;0.00;;;;;16.56;61.91;100585.09;5073413;28;9800;-60
2021/12/29 05:18:35;;;;;;;;;1.00;1.00;;;;;16.63;61.74;100588.53;5074032;28;9104;-61
2021/12/29 05:21:01;;;;;;;;;1.00;1.00;;;;;16.64;61.45;100595.56;5073640;28;8782;-60
2021/12/29 05:23:27;;;;;;;;;1.00;1.00;;;;;16.62;61.53;100595.56;5073270;28;9022;-60
2021/12/29 05:25:53;;;;;;;;;0.00;0.00;;;;;16.61;61.54;100599.09;5073567;28;9011;-60
2021/12/29 05:28:19;;;;;;;;;0.33;0.33;;;;;16.62;61.58;100597.34;5073881;28;8762;-60
2021/12/29 05:30:49;;;;;;;;;0.67;0.67;;;;;16.63;61.50;100584.16;5072789;28;9069;-59
2021/12/29 05:33:15;;;;;;;;;0.00;0.00;;;;;16.64;61.41;100595.56;5073993;28;8968;-60
2021/12/29 05:35:41;;;;;;;;;0.00;0.00;;;;;16.63;61.59;100594.69;5073209;28;8946;-59
2021/12/29 05:38:06;;;;;;;;;0.67;0.67;;;;;16.61;61.71;100596.44;5072939;28;8956;-59
2021/12/29 05:40:32;;;;;;;;;1.00;0.00;;;;;16.61;61.66;100599.09;5073225;28;11422;-59
2021/12/29 05:42:58;;;;;;;;;0.00;0.00;;;;;16.63;61.74;100599.97;5073163;28;8790;-59
2021/12/29 05:45:25;;;;;;;;;1.00;1.00;;;;;16.61;61.53;100593.81;5072844;28;8876;-59
2021/12/29 05:47:51;;;;;;;;;1.00;1.00;;;;;16.67;61.69;100595.56;5072868;28;9105;-59
2021/12/29 05:50:20;;;;;;;;;2.33;0.33;;;;;16.66;61.53;100594.66;5073267;28;9227;-60
2021/12/29 05:52:48;;;;;;;;;0.00;0.00;;;;;16.62;61.54;100592.94;5072449;28;9013;-59
2021/12/29 05:55:15;;;;;;;;;1.00;1.00;;;;;16.61;61.57;100604.34;5073111;28;9202;-59
2021/12/29 05:57:40;;;;;;;;;3.00;1.00;;;;;16.66;61.27;100607.84;5073238;28;9175;-60
2021/12/29 06:00:11;;;;;;;;;1.00;1.00;;;;;16.62;61.39;100606.13;5072551;28;9020;-60
2021/12/29 06:02:36;;;;;;;;;0.00;0.00;;;;;16.66;61.70;100614.88;5073196;28;8896;-60
2021/12/29 06:05:02;;;;;;;;;0.00;0.00;;;;;16.64;61.48;100620.19;5072159;28;9076;-60
2021/12/29 06:07:27;;;;;;;;;0.67;0.67;;;;;16.63;61.50;100622.81;5073314;28;8773;-60
2021/12/29 06:09:53;;;;;;;;;1.00;1.00;;;;;16.66;61.68;100615.75;5072651;28;9143;-61
2021/12/29 06:12:18;;;;;;;;;1.67;1.67;;;;;16.61;61.74;100614.91;5072283;28;8910;-60
2021/12/29 06:14:44;;;;;;;;;0.00;0.00;;;;;16.61;61.43;100620.16;5072624;28;8820;-60
2021/12/29 06:17:11;;;;;;;;;0.67;0.67;;;;;16.63;61.38;100618.41;5073250;28;8789;-60
2021/12/29 06:19:36;;;;;;;;;1.00;1.00;;;;;16.65;61.57;100624.53;5072464;28;8962;-60
2021/12/29 06:22:01;;;;;;;;;0.00;0.00;;;;;16.62;61.32;100615.78;5072702;28;9485;-60
2021/12/29 06:24:27;;;;;;;;;1.00;1.00;;;;;16.63;61.52;100618.41;5072244;28;8758;-60
2021/12/29 06:26:52;;;;;;;;;0.00;0.00;;;;;16.64;61.34;100625.44;5071229;28;8884;-60
2021/12/29 06:29:17;;;;;;;;;0.00;0.00;;;;;16.60;61.48;100620.19;5072693;28;8826;-60
2021/12/29 06:31:44;;;;;;;;;0.00;0.00;;;;;16.59;61.54;100629.88;5072405;28;8798;-60
2021/12/29 06:34:11;;;;;;;;;1.00;1.00;;;;;16.64;61.33;100632.47;5072159;28;8786;-61
2021/12/29 06:36:36;;;;;;;;;0.00;0.00;;;;;16.62;61.40;100631.59;5072337;28;9062;-60
2021/12/29 06:39:03;;;;;;;;;0.00;0.00;;;;;16.62;61.37;100640.38;5072334;28;9156;-60
2021/12/29 06:41:28;;;;;;;;;0.67;0.67;;;;;16.66;61.47;100646.50;5071839;28;8774;-62
2021/12/29 06:43:53;;;;;;;;;1.00;1.00;;;;;16.62;61.43;100644.78;5072122;28;9039;-61
2021/12/29 06:46:18;;;;;;;;;0.00;0.00;;;;;16.60;61.62;100650.06;5072204;28;8861;-61
2021/12/29 06:48:44;;;;;;;;;0.00;0.00;;;;;16.59;61.83;100650.06;5071106;28;8808;-61
2021/12/29 06:51:09;;;;;;;;;0.00;0.00;;;;;16.61;61.49;100662.34;5072424;28;8876;-61
2021/12/29 06:53:34;;;;;;;;;0.00;0.00;;;;;16.60;61.50;100660.63;5072148;28;8769;-61
2021/12/29 06:56:00;;;;;;;;;0.00;0.00;;;;;16.62;61.44;100666.75;5071171;28;9560;-60
2021/12/29 06:58:25;;;;;;;;;2.00;1.00;;;;;16.59;61.27;100661.50;5072257;28;8789;-61
2021/12/29 07:00:57;;;;;;;;;1.33;0.00;;;;;16.62;61.49;100661.47;5071857;28;8892;-61
2021/12/29 07:03:23;;;;;;;;;0.67;0.67;;;;;16.61;61.54;100664.97;5071373;28;8808;-61
2021/12/29 07:05:48;;;;;;;;;1.00;1.00;;;;;16.61;61.40;100661.50;5071718;28;8994;-60
2021/12/29 07:08:14;;;;;;;;;1.00;1.00;;;;;16.63;61.48;100667.63;5070748;28;8931;-61
2021/12/29 07:10:42;;;;;;;;;1.00;1.00;;;;;16.63;61.28;100678.16;5071818;28;8814;-60
2021/12/29 07:13:07;;;;;;;;;0.00;0.00;;;;;16.64;61.20;100674.66;5071881;28;8812;-61
2021/12/29 07:15:32;;;;;;;;;0.00;0.00;;;;;16.63;61.46;100673.78;5071234;28;9915;-61
2021/12/29 07:18:00;;;;;;;;;0.33;0.33;;;;;16.64;61.20;100679.94;5071447;28;8758;-61
2021/12/29 07:20:26;;;;;;;;;0.00;0.00;;;;;16.65;61.41;100681.66;5071672;28;9560;-60
2021/12/29 07:22:51;;;;;;;;;2.00;1.00;;;;;16.65;61.44;100693.06;5070752;28;9134;-61
2021/12/29 07:25:16;;;;;;;;;0.67;0.00;;;;;16.61;61.13;100701.88;5071673;28;8770;-61
2021/12/29 07:27:42;;;;;;;;;0.67;0.67;;;;;16.61;61.51;100699.25;5071456;28;8789;-61
2021/12/29 07:30:08;;;;;;;;;0.00;0.00;;;;;16.60;61.48;100701.91;5070891;28;8891;-60
2021/12/29 07:32:33;;;;;;;;;0.00;0.00;;;;;16.59;61.31;100702.78;5071668;28;8810;-61
2021/12/29 07:34:58;;;;;;;;;0.00;0.00;;;;;16.61;61.26;100704.53;5070939;28;9697;-61
2021/12/29 07:37:26;;;;;;;;;0.67;0.67;;;;;16.62;61.50;100702.75;5070310;28;8781;-59
2021/12/29 07:39:51;;;;;;;;;0.00;0.00;;;;;16.60;61.53;100709.81;5071051;28;8793;-60
2021/12/29 07:42:16;;;;;;;;;0.00;0.00;;;;;16.56;61.30;100690.50;5071387;28;8949;-60
2021/12/29 07:44:45;;;;;;;;;0.00;0.00;;;;;16.58;61.38;100696.63;5070507;28;8786;-60
2021/12/29 07:47:12;;;;;;;;;1.00;1.00;;;;;16.62;61.21;100686.94;5071302;28;8843;-59
2021/12/29 07:49:37;;;;;;;;;0.00;0.00;;;;;16.63;61.36;100686.06;5071348;28;9225;-59
2021/12/29 07:52:03;;;;;;;;;0.00;0.00;;;;;16.62;61.32;100669.38;5070027;28;9196;-59
2021/12/29 07:54:28;;;;;;;;;1.00;1.00;;;;;16.60;61.38;100684.34;5071207;28;9518;-59
2021/12/29 07:56:54;;;;;;;;;1.00;1.00;;;;;16.56;61.16;100679.97;5070757;28;8782;-59
2021/12/29 07:59:19;;;;;;;;;0.00;0.00;;;;;16.59;61.53;100687.84;5070395;28;8900;-59
2021/12/29 08:01:45;;;;;;;;;1.00;1.00;;;;;16.59;61.42;100673.78;5070726;28;8781;-60
2021/12/29 08:04:13;;;;;;;;;0.00;0.00;;;;;16.62;61.17;100679.91;5070845;28;8778;-60
2021/12/29 08:06:41;;;;;;;;;2.00;0.00;;;;;16.61;61.10;100691.34;5069853;28;11411;-59
2021/12/29 08:09:07;;;;;;;;;0.00;0.00;;;;;16.60;61.05;100689.63;5071222;28;9274;-60
2021/12/29 08:11:33;;;;;;;;;2.00;1.00;;;;;16.59;61.37;100682.56;5070351;28;9026;-59
2021/12/29 08:14:01;;;;;;;;;0.33;0.33;;;;;16.59;61.17;100679.06;5070567;28;8754;-60
2021/12/29 08:16:26;;;;;;;;;0.67;0.67;;;;;16.60;61.24;100681.69;5071041;28;8774;-60
2021/12/29 08:19:00;;;;;;;;;1.00;0.00;;;;;16.60;61.23;100689.63;5069742;28;10257;-59
2021/12/29 08:21:26;;;;;;;;;0.00;0.00;;;;;16.68;60.96;100700.13;5069589;28;8798;-59
2021/12/29 08:23:51;;;;;;;;;1.00;1.00;;;;;16.69;61.02;100700.09;5070418;28;9104;-60
2021/12/29 08:26:16;;;;;;;;;0.00;0.00;;;;;16.73;61.11;100707.09;5069726;28;8790;-60
2021/12/29 08:28:42;;;;;;;;;0.67;0.00;;;;;16.74;60.85;100708.84;5070642;28;8812;-60
2021/12/29 08:31:07;;;;;;;;;0.67;0.67;;;;;16.80;60.46;100702.66;5070552;28;8793;-59
2021/12/29 08:33:35;;;;;;;;;0.33;0.33;;;;;16.76;60.63;100703.56;5069690;28;8790;-59
2021/12/29 08:36:01;;;;;;;;;0.00;0.00;;;;;16.76;60.67;100704.44;5068440;28;8818;-59
2021/12/29 08:38:26;;;;;;;;;1.00;1.00;;;;;16.79;60.66;100707.06;5070713;28;9127;-59
2021/12/29 08:40:51;;;;;;;;;0.00;0.00;;;;;16.77;60.67;100719.38;5069445;28;8848;-59
2021/12/29 08:43:17;;;;;;;;;1.00;1.00;;;;;16.77;60.47;100724.66;5070929;28;8778;-59
2021/12/29 08:45:43;;;;;;;;;1.00;0.00;;;;;16.82;60.60;100707.06;5068846;28;8806;-58
2021/12/29 08:48:11;;;;;;;;;1.00;1.00;;;;;16.83;60.35;100708.78;5071008;28;9134;-58
2021/12/29 08:50:36;;;;;;;;;0.00;0.00;;;;;16.79;60.64;100701.81;5074603;28;9177;-59
2021/12/29 08:53:05;;;;;;;;;1.00;1.00;;;;;16.79;60.75;100716.75;5073907;28;9119;-59
2021/12/29 08:55:33;;;;;;;;;1.00;0.00;;;;;16.75;60.71;100702.72;5071833;28;8809;-59
2021/12/29 08:57:58;;;;;;;;;0.67;0.67;;;;;16.84;60.44;100710.53;5073802;28;9021;-60
2021/12/29 09:00:23;;;;;;;;;0.00;0.00;;;;;16.81;60.27;100699.13;5074490;28;9211;-60
2021/12/29 09:02:49;;;;;;;;;0.00;0.00;;;;;16.73;60.47;100677.22;5073012;28;8789;-59
2021/12/29 09:05:16;;;;;;;;;2.33;0.67;;;;;16.83;60.69;100682.41;5074395;28;8786;-60
2021/12/29 09:07:43;;;;;;;;;1.00;1.00;;;;;16.86;61.09;100678.91;5072965;28;9551;-60
2021/12/29 09:10:09;;;;;;;;;4.67;2.00;;;;;16.86;61.33;100676.25;5073934;28;9282;-60
2021/12/29 09:12:34;;;;;;;;;1.00;1.00;;;;;16.89;61.43;100681.50;5074025;28;9073;-60
2021/12/29 09:15:00;;;;;;;;;3.00;2.00;;;;;16.91;62.19;100691.16;5073054;28;9022;-60
2021/12/29 09:17:25;;;;;;;;;3.33;1.67;;;;;16.93;62.19;100685.88;5074105;28;8790;-60
2021/12/29 09:19:50;;;;;;;;;3.33;3.00;;;;;16.97;62.89;100681.47;5073515;28;9521;-61
2021/12/29 09:22:16;;;;;;;;;2.00;2.00;;;;;16.94;63.10;100677.09;5073371;28;8781;-61
2021/12/29 09:24:46;;;;;;;;;2.33;1.33;;;;;16.97;63.29;100679.72;5073818;28;8770;-61
2021/12/29 09:27:13;;;;;;;;;3.33;2.00;;;;;16.94;63.94;100681.50;5073892;28;8770;-60
2021/12/29 09:29:38;;;;;;;;;2.33;1.00;;;;;16.95;64.11;100667.41;5072767;28;9844;-60
2021/12/29 09:32:07;;;;;;;;;2.00;1.33;;;;;17.11;63.94;100683.09;5073607;28;9344;-60
2021/12/29 09:34:35;;;;;;;;;4.25;3.25;;;;;17.12;62.88;100684.88;5073479;28;8778;-60
2021/12/29 09:37:02;;;;;;;;;5.50;5.50;;;;;17.13;61.91;100701.56;5071167;28;9286;-59
2021/12/29 09:39:27;;;;;;;;;4.00;3.33;;;;;17.06;61.59;100705.16;5073564;28;9532;-59
2021/12/29 09:41:53;;;;;;;;;4.75;4.75;;;;;16.99;61.72;100696.38;5073278;28;9410;-59
2021/12/29 09:44:18;;;;;;;;;6.50;5.50;;;;;16.94;61.79;100700.84;5072648;28;8843;-59
2021/12/29 09:46:44;;;;;;;;;7.00;6.00;;;;;16.92;61.60;100695.56;5072368;28;8798;-60
2021/12/29 09:49:09;;;;;;;;;4.75;4.75;;;;;16.91;61.46;100691.16;5072345;28;8883;-60
2021/12/29 09:51:36;;;;;;;;;5.25;5.25;;;;;16.92;61.63;100686.75;5070672;28;8774;-61
2021/12/29 09:54:02;;;;;;;;;8.00;7.00;;;;;16.91;61.60;100675.34;5071561;28;8838;-61
2021/12/29 09:56:27;;;;;;;;;5.00;5.00;;;;;16.89;61.65;100670.97;5073111;28;9643;-60
2021/12/29 09:58:53;;;;;;;;;5.00;5.00;;;;;16.85;61.53;100661.31;5071437;28;10167;-60
2021/12/29 10:01:20;;;;;;;;;5.00;5.00;;;;;16.84;61.64;100662.19;5071187;28;8822;-60
2021/12/29 10:03:46;;;;;;;;;6.00;6.00;;;;;16.85;61.59;100664.84;5073143;28;8767;-60
2021/12/29 10:06:12;;;;;;;;;5.00;5.00;;;;;16.84;61.42;100663.06;5071475;28;9573;-60
2021/12/29 10:08:42;;;;;;;;;6.33;5.33;;;;;16.86;61.31;100658.69;5073133;28;8774;-60
2021/12/29 10:11:15;;;;;;;;;7.50;5.50;;;;;16.84;61.15;100655.16;5071608;28;9433;-60
2021/12/29 10:13:45;;;;;;;;;5.25;5.25;;;;;16.87;61.10;100660.41;5072769;28;10240;-59
2021/12/29 10:16:14;;;;;;;;;6.00;6.00;;;;;16.82;61.08;100641.13;5070972;28;9350;-59
2021/12/29 10:18:43;;;;;;;;;4.50;3.75;;;;;16.79;61.03;100637.66;5071864;28;9413;-60
2021/12/29 10:21:14;;;;;;;;;7.25;6.75;;;;;16.86;60.76;100642.00;5072205;28;10182;-59
2021/12/29 10:23:43;;;;;;;;;6.00;6.00;;;;;16.91;60.66;100634.91;5072736;28;9536;-59
2021/12/29 10:26:19;;;;;;;;;6.75;6.00;;;;;16.91;60.52;100632.25;5070501;28;9538;-59
2021/12/29 10:28:49;;;;;;;;;3.00;3.00;;;;;16.91;60.82;100640.16;5072353;28;9336;-60
2021/12/29 10:31:18;;;;;;;;;4.00;4.00;;;;;16.92;60.56;100631.38;5070501;28;9286;-59
2021/12/29 10:33:47;;;;;;;;;2.00;2.00;;;;;16.95;60.76;100636.63;5071819;28;9198;-60
2021/12/29 10:36:19;;;;;;;;;5.33;4.67;;;;;16.98;60.45;100638.38;5071585;28;9428;-59
2021/12/29 10:38:50;;;;;;;;;4.25;4.25;;;;;16.99;60.71;100638.34;5072246;28;9179;-60
2021/12/29 10:41:16;;;;;;;;;2.50;2.50;;;;;16.98;60.61;100630.47;5070194;28;9330;-68
2021/12/29 10:43:58;;;;;;;;;3.00;3.00;;;;;17.13;60.57;100638.25;5070665;28;9478;-59
2021/12/29 10:46:24;;;;;;;;;4.50;4.50;;;;;17.09;61.05;100645.31;5070551;28;9316;-67
2021/12/29 10:48:51;;;;;;;;;5.75;5.75;;;;;17.17;61.07;100656.66;5071923;28;9569;-58
2021/12/29 10:51:26;;;;;;;;;3.50;3.50;;;;;17.18;60.81;100658.44;5072266;28;9500;-58
2021/12/29 10:53:51;;;;;;;;;3.50;3.50;;;;;17.16;61.38;100669.88;5071498;28;9440;-58
2021/12/29 10:56:22;;;;;;;;;4.50;3.00;;;;;17.17;61.43;100664.56;5071967;28;9481;-58
2021/12/29 10:58:49;;;;;;;;;5.33;4.00;;;;;17.10;61.70;100649.69;5070333;28;8795;-58
2021/12/29 11:01:15;;;;;;;;;4.25;4.25;;;;;17.08;61.81;100651.47;5070553;28;9340;-58
2021/12/29 11:03:50;;;;;;;;;5.67;4.33;;;;;17.11;61.80;100650.56;5071430;28;9489;-58
2021/12/29 11:06:19;;;;;;;;;3.75;3.00;;;;;17.13;61.89;100643.53;5071912;28;9421;-57
2021/12/29 11:08:56;;;;;;;;;4.00;4.00;;;;;17.12;61.31;100626.84;5070301;28;9658;-57
2021/12/29 11:11:32;;;;;;;;;3.67;3.67;;;;;17.14;61.41;100613.59;5070555;28;10082;-57
2021/12/29 11:14:25;;;;;;;;;5.33;4.00;;;;;17.09;61.74;100603.13;5071381;28;9339;-58
2021/12/29 11:17:15;;;;;;;;;4.00;3.00;;;;;17.08;61.70;100613.69;5070799;28;9417;-58
2021/12/29 11:19:52;;;;;;;;;2.33;2.33;;;;;17.07;61.74;100607.53;5068899;28;10047;-58
2021/12/29 11:22:20;;;;;;;;;3.00;3.00;;;;;17.11;61.91;100622.44;5070616;28;9409;-58
2021/12/29 11:25:03;;;;;;;;;5.00;4.00;;;;;17.12;61.72;100618.91;5071582;28;10064;-58
2021/12/29 11:27:31;;;;;;;;;3.25;3.25;;;;;17.09;61.38;100603.13;5071402;28;9329;-58
2021/12/29 11:30:08;;;;;;;;;3.00;3.00;;;;;17.10;61.47;100593.41;5070564;28;9511;-58
2021/12/29 11:32:37;;;;;;;;;4.75;3.00;;;;;17.13;61.14;100596.94;5071420;28;9425;-58
2021/12/29 11:35:15;;;;;;;;;2.50;2.50;;;;;17.14;61.08;100588.09;5069808;28;9519;-58
2021/12/29 11:37:44;;;;;;;;;4.25;4.25;;;;;17.16;61.22;100589.00;5068962;28;9487;-58